Nearby METAR Reports

 

KPMD - Palmdale, California, USA
Distance from station: NNE 12mi, 19km
Updated: Mon, 21-Aug-2017 9:53am PDT
Clear
Clear
 Wind from calm
Wind: Calm
Temperature: 81°F , 27°C
Dew Point: 46°F , 8°C
Humidity: 30%
Barometer: 30.05 inHg , 1017.6 hPa
Clouds: Clear
Visibility: 10 miles , 16 km
2017/08/21 16:53 KPMD 211653Z AUTO 00000KT 10SM CLR 27/08 A3005 RMK AO2 SLP147 T02670078
KWJF - Lancaster/Fox, California, USA
Distance from station: N 17mi, 27km
Updated: Mon, 21-Aug-2017 9:56am PDT
Clear
Clear
 Wind from calm
Wind: Calm
Temperature: 79°F , 26°C
Dew Point: 43°F , 6°C
Humidity: 28%
Barometer: 30.04 inHg , 1017.3 hPa
Clouds: Clear
Visibility: 10 miles , 16 km
2017/08/21 16:56 KWJF 211656Z 00000KT 10SM CLR 26/06 A3004 RMK AO2 SLP154 T02560056
 
KMWS - Mount Wilson, California, USA
Distance from station: SSE 18mi, 30km
Updated: Wed, 13-May-2015 6:45am PDT
NOT Current

 Wind from S
Wind: S 3 mph , 6 km/h, Gust: 5 mph , 7 km/h
Temperature: 43°F , 6°C
Dew Point: -0°F , -18°C
Humidity: 16%
2015/05/13 13:45 KMWS 131345Z 18003G04KT 06/M18 RMK SNOW DEPTH 1.00
KWHP - La / Whiteman, California, USA
Distance from station: SW 21mi, 34km
Updated: Sun, 20-Aug-2017 7:55pm PDT
NOT Current
Clear
Clear
 Wind from E
Wind: E 6 mph , 9 km/h
Temperature: 68°F , 20°C
Dew Point: 59°F , 15°C
Humidity: 73%
Barometer: 29.95 inHg , 1014.2 hPa
Clouds: Clear
Visibility: 10 miles , 16 km
2017/08/21 02:55 KWHP 210255Z 10005KT 10SM SKC 20/15 A2995
 
KBUR - Burbank, California, USA
Distance from station: SSW 22mi, 35km
Updated: Mon, 21-Aug-2017 9:53am PDT
Clear
Clear
 Wind from W
Wind: W 5 mph , 7 km/h
Temperature: 70°F , 21°C
Dew Point: 57°F , 14°C
Humidity: 64%
Barometer: 30.01 inHg , 1016.3 hPa
Clouds: Clear
Visibility: 8 miles , 13 km
2017/08/21 16:53 KBUR 211653Z 26004KT 8SM CLR 21/14 A3001 RMK AO2 SLP151 T02110144
KVNY - Van Nuys, California, USA
Distance from station: SW 25mi, 40km
Updated: Mon, 21-Aug-2017 9:51am PDT
Haze, Clear
Haze, Clear
 Wind from varies
Wind: varies 3 mph , 6 km/h
Temperature: 70°F , 21°C
Dew Point: 59°F , 15°C
Humidity: 69%
Barometer: 30.02 inHg , 1016.6 hPa
Summary: Haze
Clouds: Clear
Visibility: 5 miles , 8 km
2017/08/21 16:51 KVNY 211651Z VRB03KT 5SM HZ CLR 21/15 A3002 RMK AO2 SLP157 T02060150
 
KEDW - Edwards Afb, California, USA
Distance from station: NNE 33mi, 53km
Updated: Mon, 21-Aug-2017 9:58am PDT
Few Clouds
Few Clouds
 Wind from calm
Wind: Calm
Temperature: 77°F , 25°C
Dew Point: 45°F , 7°C
Humidity: 32%
Barometer: 30.02 inHg , 1016.6 hPa
Clouds: Few Clouds
Visibility: 80 miles , 128 km
Cloud details: Few Clouds 15000 ft
2017/08/21 16:58 KEDW 211658Z 00000KT 80SM FEW150 25/07 A3002 RMK AO2A SLP139 T02500065
KSMO - Santa Monica, California, USA
Distance from station: SSW 35mi, 57km
Updated: Mon, 21-Aug-2017 9:51am PDT
Overcast
Overcast
 Wind from SSW
Wind: SSW 7 mph , 11 km/h
Temperature: 72°F , 22°C
Dew Point: 63°F , 17°C
Humidity: 73%
Barometer: 30.01 inHg , 1016.3 hPa
Clouds: Overcast
Visibility: 10 miles , 16 km
Cloud details: Overcast 2300 ft
2017/08/21 16:51 KSMO 211651Z 21006KT 10SM OVC023 22/17 A3001 RMK AO2 SLP161 T02170167
 
KLAX - Los Angeles, California, USA
Distance from station: SSW 39mi, 63km
Updated: Mon, 21-Aug-2017 10:23am PDT
Partly cloudy
Partly cloudy
 Wind from WSW
Wind: WSW 12 mph , 19 km/h
Temperature: 72°F , 22°C
Dew Point: 61°F , 16°C
Humidity: 69%
Barometer: 30.01 inHg , 1016.3 hPa
Clouds: Partly cloudy
Visibility: 8 miles , 13 km
Cloud details: Partly cloudy 2200 ft
Partly cloudy 2500 ft
2017/08/21 17:23 KLAX 211723Z 25010KT 8SM SCT022 SCT025 22/16 A3001 RMK AO2 SCT025 V BKN T02170161
KMHV - Mojave, California, USA
Distance from station: N 41mi, 66km
Updated: Mon, 21-Aug-2017 10:00am PDT
Clear
Clear
 Wind from calm
Wind: Calm
Temperature: 79°F , 26°C
Dew Point: 48°F , 9°C
Humidity: 34%
Barometer: 30.06 inHg , 1017.9 hPa
Clouds: Clear
Visibility: 10 miles , 16 km
2017/08/21 17:00 KMHV 211700Z AUTO 00000KT 10SM CLR 26/09 A3006 RMK A01
 
KFUL - Fullerton, California, USA
Distance from station: SSE 44mi, 70km
Updated: Mon, 21-Aug-2017 10:26am PDT
Partly cloudy
Partly cloudy
 Wind from WNW
Wind: WNW 3 mph , 6 km/h
Temperature: 73°F , 23°C
Dew Point: 61°F , 16°C
Humidity: 65%
Barometer: 30.00 inHg , 1015.9 hPa
Clouds: Partly cloudy
Visibility: 10 miles , 16 km
Cloud details: Partly cloudy 2400 ft
2017/08/21 17:26 KFUL 211726Z 29003KT 10SM SCT024 23/16 A3000 RMK AO2 T02330161
KONT - Ontario, California, USA
Distance from station: SE 45mi, 72km
Updated: Mon, 21-Aug-2017 9:53am PDT
Haze, Clear
Haze, Clear
 Wind from calm
Wind: Calm
Temperature: 72°F , 22°C
Dew Point: 61°F , 16°C
Humidity: 69%
Barometer: 30.02 inHg , 1016.6 hPa
Summary: Haze
Clouds: Clear
Visibility: 5 miles , 8 km
2017/08/21 16:53 KONT 211653Z 00000KT 5SM HZ CLR 22/16 A3002 RMK AO2 SLP154 T02170156
 
KLGB - Long Beach, California, USA
Distance from station: S 46mi, 74km
Updated: Mon, 21-Aug-2017 9:53am PDT
Mostly cloudy
Mostly cloudy
 Wind from varies
Wind: varies 3 mph , 6 km/h
Temperature: 72°F , 22°C
Dew Point: 61°F , 16°C
Humidity: 69%
Barometer: 30.01 inHg , 1016.3 hPa
Clouds: Mostly cloudy
Visibility: 10 miles , 16 km
Cloud details: Mostly cloudy 2400 ft
2017/08/21 16:53 KLGB 211653Z VRB03KT 10SM BKN024 22/16 A3001 RMK AO2 SLP161 T02170156
KVCV - Victorville, California, USA
Distance from station: E 46mi, 74km
Updated: Mon, 21-Aug-2017 10:15am PDT
Clear
Clear
 Wind from calm
Wind: Calm
Temperature: 81°F , 27°C
Dew Point: 39°F , 4°C
Humidity: 23%
Barometer: 30.06 inHg , 1017.9 hPa
Clouds: Clear
Visibility: 10 miles , 16 km
2017/08/21 17:15 KVCV 211715Z AUTO 00000KT 10SM CLR 27/04 A3006 RMK AO2
 
KTSP - Tehachapi, California, USA
Distance from station: NNW 48mi, 77km
Updated: Mon, 21-Aug-2017 10:35am PDT
Clear
Clear
 Wind from ESE
Wind: ESE 12 mph , 19 km/h, Gust: 18 mph , 30 km/h
Temperature: 77°F , 25°C
Dew Point: 36°F , 2°C
Humidity: 22%
Barometer: 30.13 inHg , 1020.3 hPa
Clouds: Clear
Visibility: 10 miles , 16 km
2017/08/21 17:35 KTSP 211735Z AUTO 11010G16KT 10SM CLR 25/02 A3013 RMK AO2